sensor_id;sensor_type;location;lat;lon;timestamp;pressure;altitude;pressure_sealevel;temperature;humidity
21781;BME280;52576;53.614;9.894;2023-03-04T00:01:21;101827.91;;;4.92;77.83
21781;BME280;52576;53.614;9.894;2023-03-04T00:03:24;101821.81;;;4.93;77.71
21781;BME280;52576;53.614;9.894;2023-03-04T00:05:28;101823.50;;;4.94;77.53
21781;BME280;52576;53.614;9.894;2023-03-04T00:07:33;101824.34;;;4.95;77.39
21781;BME280;52576;53.614;9.894;2023-03-04T00:09:36;101822.59;;;4.95;77.36
21781;BME280;52576;53.614;9.894;2023-03-04T00:11:39;101825.19;;;4.95;77.39
21781;BME280;52576;53.614;9.894;2023-03-04T00:13:43;101825.19;;;4.95;77.22
21781;BME280;52576;53.614;9.894;2023-03-04T00:15:46;101829.50;;;4.96;77.07
21781;BME280;52576;53.614;9.894;2023-03-04T00:17:49;101816.50;;;4.96;76.96
21781;BME280;52576;53.614;9.894;2023-03-04T00:19:53;101818.22;;;4.97;76.85
21781;BME280;52576;53.614;9.894;2023-03-04T00:21:56;101827.72;;;4.98;77.00
21781;BME280;52576;53.614;9.894;2023-03-04T00:24:01;101825.97;;;4.99;76.75
21781;BME280;52576;53.614;9.894;2023-03-04T00:26:04;101829.44;;;4.99;76.82
21781;BME280;52576;53.614;9.894;2023-03-04T00:28:09;101829.38;;;5.01;76.61
21781;BME280;52576;53.614;9.894;2023-03-04T00:30:13;101826.78;;;5.01;76.59
21781;BME280;52576;53.614;9.894;2023-03-04T00:32:16;101813.75;;;5.02;76.53
21781;BME280;52576;53.614;9.894;2023-03-04T00:34:20;101809.47;;;5.01;76.54
21781;BME280;52576;53.614;9.894;2023-03-04T00:36:23;101819.81;;;5.03;76.53
21781;BME280;52576;53.614;9.894;2023-03-04T00:38:29;101812.88;;;5.03;76.45
21781;BME280;52576;53.614;9.894;2023-03-04T00:40:34;101810.28;;;5.03;76.50
21781;BME280;52576;53.614;9.894;2023-03-04T00:42:38;101811.13;;;5.04;76.36
21781;BME280;52576;53.614;9.894;2023-03-04T00:44:42;101805.94;;;5.04;76.29
21781;BME280;52576;53.614;9.894;2023-03-04T00:46:45;101806.78;;;5.04;76.30
21781;BME280;52576;53.614;9.894;2023-03-04T00:48:48;101799.84;;;5.05;76.30
21781;BME280;52576;53.614;9.894;2023-03-04T00:50:51;101794.63;;;5.05;76.35
21781;BME280;52576;53.614;9.894;2023-03-04T00:52:55;101800.69;;;5.05;76.09
21781;BME280;52576;53.614;9.894;2023-03-04T00:54:58;101798.97;;;5.04;76.26
21781;BME280;52576;53.614;9.894;2023-03-04T00:57:03;101803.28;;;5.05;76.21
21781;BME280;52576;53.614;9.894;2023-03-04T00:59:06;101790.28;;;5.05;75.97
21781;BME280;52576;53.614;9.894;2023-03-04T01:01:09;101792.00;;;5.06;76.03
21781;BME280;52576;53.614;9.894;2023-03-04T01:03:13;101794.56;;;5.08;76.22
21781;BME280;52576;53.614;9.894;2023-03-04T01:05:17;101793.72;;;5.07;76.05
21781;BME280;52576;53.614;9.894;2023-03-04T01:07:20;101784.16;;;5.08;76.06
21781;BME280;52576;53.614;9.894;2023-03-04T01:09:23;101785.06;;;5.07;76.13
21781;BME280;52576;53.614;9.894;2023-03-04T01:11:27;101785.91;;;5.07;76.39
21781;BME280;52576;53.614;9.894;2023-03-04T01:13:32;101783.31;;;5.07;76.37
21781;BME280;52576;53.614;9.894;2023-03-04T01:15:35;101785.06;;;5.07;76.51
21781;BME280;52576;53.614;9.894;2023-03-04T01:17:39;101781.59;;;5.06;76.40
21781;BME280;52576;53.614;9.894;2023-03-04T01:19:43;101780.72;;;5.07;76.37
21781;BME280;52576;53.614;9.894;2023-03-04T01:21:46;101772.06;;;5.07;76.60
21781;BME280;52576;53.614;9.894;2023-03-04T01:23:49;101766.00;;;5.06;76.53
21781;BME280;52576;53.614;9.894;2023-03-04T01:25:53;101766.00;;;5.06;76.55
21781;BME280;52576;53.614;9.894;2023-03-04T01:27:56;101745.22;;;5.06;76.44
21781;BME280;52576;53.614;9.894;2023-03-04T01:30:02;101760.81;;;5.06;76.61
21781;BME280;52576;53.614;9.894;2023-03-04T01:32:06;101757.31;;;5.07;76.45
21781;BME280;52576;53.614;9.894;2023-03-04T01:34:09;101740.03;;;5.06;76.65
21781;BME280;52576;53.614;9.894;2023-03-04T01:36:12;101759.94;;;5.07;76.55
21781;BME280;52576;53.614;9.894;2023-03-04T01:38:16;101736.53;;;5.07;76.47
21781;BME280;52576;53.614;9.894;2023-03-04T01:40:19;101742.63;;;5.06;76.55
21781;BME280;52576;53.614;9.894;2023-03-04T01:42:33;101740.88;;;5.07;76.37
21781;BME280;52576;53.614;9.894;2023-03-04T01:44:37;101740.03;;;5.06;76.40
21781;BME280;52576;53.614;9.894;2023-03-04T01:46:46;101729.69;;;5.05;76.42
21781;BME280;52576;53.614;9.894;2023-03-04T01:48:51;101729.69;;;5.05;76.50
21781;BME280;52576;53.614;9.894;2023-03-04T01:50:55;101727.94;;;5.05;76.50
21781;BME280;52576;53.614;9.894;2023-03-04T01:53:00;101724.44;;;5.06;76.52
21781;BME280;52576;53.614;9.894;2023-03-04T01:55:08;101722.75;;;5.05;76.61
21781;BME280;52576;53.614;9.894;2023-03-04T01:57:18;101734.91;;;5.03;76.80
21781;BME280;52576;53.614;9.894;2023-03-04T01:59:22;101719.31;;;5.03;76.69
21781;BME280;52576;53.614;9.894;2023-03-04T02:01:26;101721.03;;;5.04;76.68
21781;BME280;52576;53.614;9.894;2023-03-04T02:03:30;101719.31;;;5.03;76.90
21781;BME280;52576;53.614;9.894;2023-03-04T02:05:35;101715.88;;;5.03;76.91
21781;BME280;52576;53.614;9.894;2023-03-04T02:07:39;101722.81;;;5.02;77.08
21781;BME280;52576;53.614;9.894;2023-03-04T02:09:43;101716.72;;;5.03;77.03
21781;BME280;52576;53.614;9.894;2023-03-04T02:11:48;101713.25;;;5.04;77.10
21781;BME280;52576;53.614;9.894;2023-03-04T02:13:52;101730.56;;;5.04;77.10
21781;BME280;52576;53.614;9.894;2023-03-04T02:15:55;101705.44;;;5.04;77.06
21781;BME280;52576;53.614;9.894;2023-03-04T02:17:59;101715.84;;;5.04;76.98
21781;BME280;52576;53.614;9.894;2023-03-04T02:20:12;101705.44;;;5.04;77.24
21781;BME280;52576;53.614;9.894;2023-03-04T02:22:17;101701.94;;;5.05;77.30
21781;BME280;52576;53.614;9.894;2023-03-04T02:24:26;101708.91;;;5.05;77.16
21781;BME280;52576;53.614;9.894;2023-03-04T02:26:33;101707.97;;;5.07;77.33
21781;BME280;52576;53.614;9.894;2023-03-04T02:28:37;101702.75;;;5.07;77.28
21781;BME280;52576;53.614;9.894;2023-03-04T02:30:41;101705.34;;;5.07;77.41
21781;BME280;52576;53.614;9.894;2023-03-04T02:32:44;101693.25;;;5.06;77.21
21781;BME280;52576;53.614;9.894;2023-03-04T02:34:49;101693.25;;;5.06;77.55
21781;BME280;52576;53.614;9.894;2023-03-04T02:36:55;101689.78;;;5.07;77.61
21781;BME280;52576;53.614;9.894;2023-03-04T02:39:04;101691.47;;;5.08;77.64
21781;BME280;52576;53.614;9.894;2023-03-04T02:41:11;101684.56;;;5.07;77.62
21781;BME280;52576;53.614;9.894;2023-03-04T02:43:17;101684.56;;;5.07;77.78
21781;BME280;52576;53.614;9.894;2023-03-04T02:45:34;101682.81;;;5.08;77.88
21781;BME280;52576;53.614;9.894;2023-03-04T02:47:40;101680.22;;;5.08;77.73
21781;BME280;52576;53.614;9.894;2023-03-04T02:49:43;101677.66;;;5.06;77.79
21781;BME280;52576;53.614;9.894;2023-03-04T02:51:49;101681.97;;;5.07;77.98
21781;BME280;52576;53.614;9.894;2023-03-04T02:53:53;101672.47;;;5.06;78.27
21781;BME280;52576;53.614;9.894;2023-03-04T02:55:57;101667.28;;;5.06;78.34
21781;BME280;52576;53.614;9.894;2023-03-04T02:58:04;101669.06;;;5.04;78.27
21781;BME280;52576;53.614;9.894;2023-03-04T03:00:11;101675.13;;;5.05;78.40
21781;BME280;52576;53.614;9.894;2023-03-04T03:02:16;101669.06;;;5.04;78.50
21781;BME280;52576;53.614;9.894;2023-03-04T03:04:20;101669.06;;;5.04;78.50
21781;BME280;52576;53.614;9.894;2023-03-04T03:06:26;101666.47;;;5.04;78.51
21781;BME280;52576;53.614;9.894;2023-03-04T03:08:29;101666.47;;;5.04;78.62
21781;BME280;52576;53.614;9.894;2023-03-04T03:10:35;101662.09;;;5.06;78.65
21781;BME280;52576;53.614;9.894;2023-03-04T03:12:40;101665.56;;;5.05;78.72
21781;BME280;52576;53.614;9.894;2023-03-04T03:14:44;101667.28;;;5.06;78.89
21781;BME280;52576;53.614;9.894;2023-03-04T03:16:52;101662.09;;;5.06;78.87
21781;BME280;52576;53.614;9.894;2023-03-04T03:18:56;101651.66;;;5.08;78.89
21781;BME280;52576;53.614;9.894;2023-03-04T03:20:59;101657.69;;;5.08;79.00
21781;BME280;52576;53.614;9.894;2023-03-04T03:23:02;101660.28;;;5.08;78.80
21781;BME280;52576;53.614;9.894;2023-03-04T03:25:07;101644.69;;;5.08;79.02
21781;BME280;52576;53.614;9.894;2023-03-04T03:27:11;101644.69;;;5.08;79.32
21781;BME280;52576;53.614;9.894;2023-03-04T03:29:14;101653.38;;;5.07;79.18
21781;BME280;52576;53.614;9.894;2023-03-04T03:31:17;101643.94;;;5.05;79.32
21781;BME280;52576;53.614;9.894;2023-03-04T03:33:22;101641.38;;;5.03;79.52
21781;BME280;52576;53.614;9.894;2023-03-04T03:35:26;101639.69;;;5.02;79.56
21781;BME280;52576;53.614;9.894;2023-03-04T03:37:30;101642.31;;;5.01;79.63
21781;BME280;52576;53.614;9.894;2023-03-04T03:39:33;101640.63;;;5.00;80.01
21781;BME280;52576;53.614;9.894;2023-03-04T03:41:37;101648.44;;;4.98;80.02
21781;BME280;52576;53.614;9.894;2023-03-04T03:43:40;101643.31;;;4.97;80.09
21781;BME280;52576;53.614;9.894;2023-03-04T03:45:43;101653.75;;;4.95;80.39
21781;BME280;52576;53.614;9.894;2023-03-04T03:47:46;101636.44;;;4.94;80.58
21781;BME280;52576;53.614;9.894;2023-03-04T03:49:51;101640.88;;;4.92;80.84
21781;BME280;52576;53.614;9.894;2023-03-04T03:51:54;101645.25;;;4.90;80.96
21781;BME280;52576;53.614;9.894;2023-03-04T03:53:57;101632.28;;;4.90;80.85
21781;BME280;52576;53.614;9.894;2023-03-04T03:56:01;101630.56;;;4.89;81.15
21781;BME280;52576;53.614;9.894;2023-03-04T03:58:04;101639.22;;;4.90;81.22
21781;BME280;52576;53.614;9.894;2023-03-04T04:00:10;101627.97;;;4.89;81.23
21781;BME280;52576;53.614;9.894;2023-03-04T04:02:13;101624.47;;;4.90;81.14
21781;BME280;52576;53.614;9.894;2023-03-04T04:04:16;101627.97;;;4.89;81.28
21781;BME280;52576;53.614;9.894;2023-03-04T04:06:21;101634.88;;;4.90;81.37
21781;BME280;52576;53.614;9.894;2023-03-04T04:08:24;101619.28;;;4.90;81.36
21781;BME280;52576;53.614;9.894;2023-03-04T04:10:28;101624.44;;;4.92;81.20
21781;BME280;52576;53.614;9.894;2023-03-04T04:12:31;101630.47;;;4.92;81.04
21781;BME280;52576;53.614;9.894;2023-03-04T04:14:34;101619.19;;;4.93;80.85
21781;BME280;52576;53.614;9.894;2023-03-04T04:16:37;101610.47;;;4.94;80.64
21781;BME280;52576;53.614;9.894;2023-03-04T04:18:41;101630.31;;;4.97;80.48
21781;BME280;52576;53.614;9.894;2023-03-04T04:20:45;101633.75;;;4.97;80.16
21781;BME280;52576;53.614;9.894;2023-03-04T04:22:49;101631.06;;;5.00;79.18
21781;BME280;52576;53.614;9.894;2023-03-04T04:24:53;101626.66;;;5.04;78.70
21781;BME280;52576;53.614;9.894;2023-03-04T04:26:56;101631.72;;;5.08;78.36
21781;BME280;52576;53.614;9.894;2023-03-04T04:28:59;101623.81;;;5.11;77.67
21781;BME280;52576;53.614;9.894;2023-03-04T04:31:06;101614.19;;;5.15;77.42
21781;BME280;52576;53.614;9.894;2023-03-04T04:33:09;101627.13;;;5.17;77.39
21781;BME280;52576;53.614;9.894;2023-03-04T04:35:12;101620.16;;;5.19;77.27
21781;BME280;52576;53.614;9.894;2023-03-04T04:37:16;101613.19;;;5.19;77.06
21781;BME280;52576;53.614;9.894;2023-03-04T04:39:20;101629.66;;;5.20;77.12
21781;BME280;52576;53.614;9.894;2023-03-04T04:41:25;101616.66;;;5.20;77.17
21781;BME280;52576;53.614;9.894;2023-03-04T04:43:29;101615.81;;;5.19;76.92
21781;BME280;52576;53.614;9.894;2023-03-04T04:45:33;101621.84;;;5.20;76.77
21781;BME280;52576;53.614;9.894;2023-03-04T04:47:36;101616.66;;;5.20;76.46
21781;BME280;52576;53.614;9.894;2023-03-04T04:49:39;101611.44;;;5.20;76.25
21781;BME280;52576;53.614;9.894;2023-03-04T04:51:43;101618.31;;;5.21;76.21
21781;BME280;52576;53.614;9.894;2023-03-04T04:53:46;101613.97;;;5.21;76.21
21781;BME280;52576;53.614;9.894;2023-03-04T04:55:51;101609.63;;;5.22;76.57
21781;BME280;52576;53.614;9.894;2023-03-04T04:57:54;101625.22;;;5.22;76.76
21781;BME280;52576;53.614;9.894;2023-03-04T05:00:00;101604.56;;;5.19;77.37
21781;BME280;52576;53.614;9.894;2023-03-04T05:02:19;101615.03;;;5.16;78.08
21781;BME280;52576;53.614;9.894;2023-03-04T05:04:26;101603.03;;;5.11;78.47
21781;BME280;52576;53.614;9.894;2023-03-04T05:06:29;101615.31;;;5.06;79.04
21781;BME280;52576;53.614;9.894;2023-03-04T05:08:32;101606.78;;;5.01;79.52
21781;BME280;52576;53.614;9.894;2023-03-04T05:10:36;101614.69;;;4.98;79.88
21781;BME280;52576;53.614;9.894;2023-03-04T05:12:43;101597.47;;;4.94;80.25
21781;BME280;52576;53.614;9.894;2023-03-04T05:14:46;101590.66;;;4.92;80.42
21781;BME280;52576;53.614;9.894;2023-03-04T05:16:49;101608.03;;;4.90;80.64
21781;BME280;52576;53.614;9.894;2023-03-04T05:18:54;101592.50;;;4.88;80.71
21781;BME280;52576;53.614;9.894;2023-03-04T05:20:58;101609.03;;;4.86;80.67
21781;BME280;52576;53.614;9.894;2023-03-04T05:23:02;101603.88;;;4.84;80.78
21781;BME280;52576;53.614;9.894;2023-03-04T05:25:06;101598.66;;;4.84;80.47
21781;BME280;52576;53.614;9.894;2023-03-04T05:27:10;101603.03;;;4.84;80.41
21781;BME280;52576;53.614;9.894;2023-03-04T05:29:14;101598.66;;;4.84;80.28
21781;BME280;52576;53.614;9.894;2023-03-04T05:31:18;101603.88;;;4.84;79.93
21781;BME280;52576;53.614;9.894;2023-03-04T05:33:21;101608.22;;;4.84;79.52
21781;BME280;52576;53.614;9.894;2023-03-04T05:35:25;101616.81;;;4.86;79.01
21781;BME280;52576;53.614;9.894;2023-03-04T05:37:30;101620.25;;;4.86;78.14
21781;BME280;52576;53.614;9.894;2023-03-04T05:39:33;101619.38;;;4.87;77.42
21781;BME280;52576;53.614;9.894;2023-03-04T05:41:36;101622.78;;;4.89;76.19
21781;BME280;52576;53.614;9.894;2023-03-04T05:43:39;101611.47;;;4.90;74.87
21781;BME280;52576;53.614;9.894;2023-03-04T05:45:48;101607.09;;;4.92;73.80
21781;BME280;52576;53.614;9.894;2023-03-04T05:47:52;101612.22;;;4.94;73.52
21781;BME280;52576;53.614;9.894;2023-03-04T05:49:55;101613.06;;;4.94;72.89
21781;BME280;52576;53.614;9.894;2023-03-04T05:51:58;101617.38;;;4.95;72.52
21781;BME280;52576;53.614;9.894;2023-03-04T05:54:02;101613.03;;;4.96;72.12
21781;BME280;52576;53.614;9.894;2023-03-04T05:56:06;101613.88;;;4.96;72.08
21781;BME280;52576;53.614;9.894;2023-03-04T05:58:10;101626.81;;;4.98;71.81
21781;BME280;52576;53.614;9.894;2023-03-04T06:00:14;101611.22;;;4.98;71.64
21781;BME280;52576;53.614;9.894;2023-03-04T06:02:19;101607.75;;;4.99;71.36
21781;BME280;52576;53.614;9.894;2023-03-04T06:04:22;101616.44;;;4.98;71.28
21781;BME280;52576;53.614;9.894;2023-03-04T06:06:26;101617.28;;;4.98;71.02
21781;BME280;52576;53.614;9.894;2023-03-04T06:08:29;101626.78;;;4.99;70.77
21781;BME280;52576;53.614;9.894;2023-03-04T06:10:32;101611.22;;;4.98;70.65
21781;BME280;52576;53.614;9.894;2023-03-04T06:12:36;101628.53;;;4.99;70.61
21781;BME280;52576;53.614;9.894;2023-03-04T06:14:39;101620.72;;;4.99;70.29
21781;BME280;52576;53.614;9.894;2023-03-04T06:16:42;101625.97;;;4.97;70.26
21781;BME280;52576;53.614;9.894;2023-03-04T06:18:47;101628.56;;;4.97;69.69
21781;BME280;52576;53.614;9.894;2023-03-04T06:20:55;101626.06;;;4.94;69.24
21781;BME280;52576;53.614;9.894;2023-03-04T06:22:58;101631.31;;;4.93;68.90
21781;BME280;52576;53.614;9.894;2023-03-04T06:25:02;101627.06;;;4.90;68.70
21781;BME280;52576;53.614;9.894;2023-03-04T06:27:05;101632.34;;;4.87;68.24
21781;BME280;52576;53.614;9.894;2023-03-04T06:29:08;101648.91;;;4.83;67.80
21781;BME280;52576;53.614;9.894;2023-03-04T06:31:12;101643.81;;;4.80;67.61
21781;BME280;52576;53.614;9.894;2023-03-04T06:33:15;101633.50;;;4.77;67.74
21781;BME280;52576;53.614;9.894;2023-03-04T06:35:20;101641.34;;;4.75;67.76
21781;BME280;52576;53.614;9.894;2023-03-04T06:37:23;101642.28;;;4.73;67.75
21781;BME280;52576;53.614;9.894;2023-03-04T06:39:26;101656.16;;;4.72;67.64
21781;BME280;52576;53.614;9.894;2023-03-04T06:41:30;101646.66;;;4.71;67.91
21781;BME280;52576;53.614;9.894;2023-03-04T06:43:33;101631.97;;;4.70;67.66
21781;BME280;52576;53.614;9.894;2023-03-04T06:45:38;101650.19;;;4.68;67.72
21781;BME280;52576;53.614;9.894;2023-03-04T06:47:41;101646.81;;;4.66;67.69
21781;BME280;52576;53.614;9.894;2023-03-04T06:49:45;101644.25;;;4.65;67.84
21781;BME280;52576;53.614;9.894;2023-03-04T06:51:50;101647.75;;;4.64;68.19
21781;BME280;52576;53.614;9.894;2023-03-04T06:53:54;101644.34;;;4.62;68.27
21781;BME280;52576;53.614;9.894;2023-03-04T06:55:57;101649.53;;;4.62;68.59
21781;BME280;52576;53.614;9.894;2023-03-04T06:58:00;101643.53;;;4.60;68.74
21781;BME280;52576;53.614;9.894;2023-03-04T07:00:05;101644.44;;;4.59;68.80
21781;BME280;52576;53.614;9.894;2023-03-04T07:02:10;101650.47;;;4.59;68.95
21781;BME280;52576;53.614;9.894;2023-03-04T07:04:13;101649.63;;;4.59;69.04
21781;BME280;52576;53.614;9.894;2023-03-04T07:06:18;101651.31;;;4.60;69.02
21781;BME280;52576;53.614;9.894;2023-03-04T07:08:23;101651.38;;;4.58;69.36
21781;BME280;52576;53.614;9.894;2023-03-04T07:10:27;101641.84;;;4.59;69.41
21781;BME280;52576;53.614;9.894;2023-03-04T07:12:30;101642.72;;;4.58;69.48
21781;BME280;52576;53.614;9.894;2023-03-04T07:14:33;101658.31;;;4.58;69.36
21781;BME280;52576;53.614;9.894;2023-03-04T07:16:37;101653.09;;;4.58;69.50
21781;BME280;52576;53.614;9.894;2023-03-04T07:18:40;101653.09;;;4.58;69.41
21781;BME280;52576;53.614;9.894;2023-03-04T07:20:44;101653.97;;;4.58;69.33
21781;BME280;52576;53.614;9.894;2023-03-04T07:22:47;101651.31;;;4.60;69.32
21781;BME280;52576;53.614;9.894;2023-03-04T07:24:51;101653.03;;;4.61;69.36
21781;BME280;52576;53.614;9.894;2023-03-04T07:26:55;101659.94;;;4.62;69.17
21781;BME280;52576;53.614;9.894;2023-03-04T07:28:59;101654.72;;;4.62;69.24
21781;BME280;52576;53.614;9.894;2023-03-04T07:31:10;101665.97;;;4.62;69.19
21781;BME280;52576;53.614;9.894;2023-03-04T07:33:14;101651.28;;;4.61;69.00
21781;BME280;52576;53.614;9.894;2023-03-04T07:35:17;101655.63;;;4.61;68.97
21781;BME280;52576;53.614;9.894;2023-03-04T07:37:21;101661.72;;;4.60;68.98
21781;BME280;52576;53.614;9.894;2023-03-04T07:39:24;101661.72;;;4.60;68.82
21781;BME280;52576;53.614;9.894;2023-03-04T07:41:29;101669.50;;;4.60;68.77
21781;BME280;52576;53.614;9.894;2023-03-04T07:43:32;101667.75;;;4.60;68.67
21781;BME280;52576;53.614;9.894;2023-03-04T07:45:35;101673.81;;;4.61;68.39
21781;BME280;52576;53.614;9.894;2023-03-04T07:47:39;101672.09;;;4.60;68.13
21781;BME280;52576;53.614;9.894;2023-03-04T07:49:42;101672.09;;;4.60;67.63
21781;BME280;52576;53.614;9.894;2023-03-04T07:51:45;101665.16;;;4.60;67.51
21781;BME280;52576;53.614;9.894;2023-03-04T07:53:50;101661.72;;;4.60;67.33
21781;BME280;52576;53.614;9.894;2023-03-04T07:55:54;101673.81;;;4.61;67.00
21781;BME280;52576;53.614;9.894;2023-03-04T07:57:59;101662.53;;;4.62;67.02
21781;BME280;52576;53.614;9.894;2023-03-04T08:00:02;101678.91;;;4.64;66.66
21781;BME280;52576;53.614;9.894;2023-03-04T08:02:13;101680.63;;;4.65;66.22
21781;BME280;52576;53.614;9.894;2023-03-04T08:04:16;101678.91;;;4.64;66.42
21781;BME280;52576;53.614;9.894;2023-03-04T08:06:20;101696.19;;;4.65;65.94
21781;BME280;52576;53.614;9.894;2023-03-04T08:08:23;101678.03;;;4.65;65.77
21781;BME280;52576;53.614;9.894;2023-03-04T08:10:26;101680.63;;;4.65;65.62
21781;BME280;52576;53.614;9.894;2023-03-04T08:12:30;101684.09;;;4.64;65.49
21781;BME280;52576;53.614;9.894;2023-03-04T08:14:34;101677.22;;;4.63;65.28
21781;BME280;52576;53.614;9.894;2023-03-04T08:16:38;101691.09;;;4.62;65.43
21781;BME280;52576;53.614;9.894;2023-03-04T08:18:41;101685.03;;;4.61;65.43
21781;BME280;52576;53.614;9.894;2023-03-04T08:20:45;101689.38;;;4.61;65.54
21781;BME280;52576;53.614;9.894;2023-03-04T08:22:48;101686.78;;;4.61;65.54
21781;BME280;52576;53.614;9.894;2023-03-04T08:24:51;101687.66;;;4.60;65.83
21781;BME280;52576;53.614;9.894;2023-03-04T08:26:54;101691.16;;;4.59;66.12
21781;BME280;52576;53.614;9.894;2023-03-04T08:29:00;101689.38;;;4.61;66.16
21781;BME280;52576;53.614;9.894;2023-03-04T08:31:05;101684.19;;;4.61;66.20
21781;BME280;52576;53.614;9.894;2023-03-04T08:33:09;101685.88;;;4.62;66.37
21781;BME280;52576;53.614;9.894;2023-03-04T08:35:13;101691.91;;;4.64;66.28
21781;BME280;52576;53.614;9.894;2023-03-04T08:37:16;101691.09;;;4.62;66.35
21781;BME280;52576;53.614;9.894;2023-03-04T08:39:20;101692.88;;;4.60;66.27
21781;BME280;52576;53.614;9.894;2023-03-04T08:41:23;101694.66;;;4.58;66.47
21781;BME280;52576;53.614;9.894;2023-03-04T08:43:28;101686.06;;;4.56;66.48
21781;BME280;52576;53.614;9.894;2023-03-04T08:45:34;101704.19;;;4.57;66.44
21781;BME280;52576;53.614;9.894;2023-03-04T08:47:40;101684.25;;;4.58;66.20
21781;BME280;52576;53.614;9.894;2023-03-04T08:49:44;101687.66;;;4.60;66.14
21781;BME280;52576;53.614;9.894;2023-03-04T08:51:47;101698.03;;;4.61;66.02
21781;BME280;52576;53.614;9.894;2023-03-04T08:53:51;101704.88;;;4.64;65.73
21781;BME280;52576;53.614;9.894;2023-03-04T08:55:54;101692.72;;;4.66;65.42
21781;BME280;52576;53.614;9.894;2023-03-04T08:57:57;101693.47;;;4.68;65.45
21781;BME280;52576;53.614;9.894;2023-03-04T09:00:00;101695.16;;;4.70;65.12
21781;BME280;52576;53.614;9.894;2023-03-04T09:02:04;101674.28;;;4.73;64.66
21781;BME280;52576;53.614;9.894;2023-03-04T09:04:09;101701.97;;;4.74;64.34
21781;BME280;52576;53.614;9.894;2023-03-04T09:06:14;101684.69;;;4.73;63.91
21781;BME280;52576;53.614;9.894;2023-03-04T09:08:17;101709.84;;;4.71;63.83
21781;BME280;52576;53.614;9.894;2023-03-04T09:10:21;101692.50;;;4.72;63.58
21781;BME280;52576;53.614;9.894;2023-03-04T09:12:24;101701.19;;;4.71;63.40
21781;BME280;52576;53.614;9.894;2023-03-04T09:14:27;101701.19;;;4.71;63.12
21781;BME280;52576;53.614;9.894;2023-03-04T09:16:30;101700.31;;;4.72;63.36
21781;BME280;52576;53.614;9.894;2023-03-04T09:18:33;101689.03;;;4.73;63.42
21781;BME280;52576;53.614;9.894;2023-03-04T09:20:38;101696.78;;;4.74;63.30
21781;BME280;52576;53.614;9.894;2023-03-04T09:22:42;101707.13;;;4.76;63.43
21781;BME280;52576;53.614;9.894;2023-03-04T09:24:45;101701.97;;;4.74;63.60
21781;BME280;52576;53.614;9.894;2023-03-04T09:26:49;101697.63;;;4.75;63.48
21781;BME280;52576;53.614;9.894;2023-03-04T09:28:54;101696.72;;;4.76;63.68
21781;BME280;52576;53.614;9.894;2023-03-04T09:30:58;101702.72;;;4.78;63.71
21781;BME280;52576;53.614;9.894;2023-03-04T09:33:02;101693.19;;;4.78;63.86
21781;BME280;52576;53.614;9.894;2023-03-04T09:35:07;101692.25;;;4.81;63.97
21781;BME280;52576;53.614;9.894;2023-03-04T09:37:12;101688.78;;;4.82;63.89
21781;BME280;52576;53.614;9.894;2023-03-04T09:39:15;101683.50;;;4.85;64.21
21781;BME280;52576;53.614;9.894;2023-03-04T09:41:20;101682.56;;;4.88;64.17
21781;BME280;52576;53.614;9.894;2023-03-04T09:43:25;101677.38;;;4.88;64.34
21781;BME280;52576;53.614;9.894;2023-03-04T09:45:36;101690.31;;;4.89;64.12
21781;BME280;52576;53.614;9.894;2023-03-04T09:47:40;101686.81;;;4.90;64.51
21781;BME280;52576;53.614;9.894;2023-03-04T09:49:47;101681.63;;;4.90;64.61
21781;BME280;52576;53.614;9.894;2023-03-04T09:51:58;101686.81;;;4.90;64.70
21781;BME280;52576;53.614;9.894;2023-03-04T09:54:08;101688.53;;;4.91;64.73
21781;BME280;52576;53.614;9.894;2023-03-04T09:56:12;101686.72;;;4.93;64.63
21781;BME280;52576;53.614;9.894;2023-03-04T09:58:26;101687.50;;;4.95;64.70
21781;BME280;52576;53.614;9.894;2023-03-04T10:00:38;101691.72;;;4.99;64.59
21781;BME280;52576;53.614;9.894;2023-03-04T10:02:46;101682.16;;;5.01;63.93
21781;BME280;52576;53.614;9.894;2023-03-04T10:04:58;101678.66;;;5.02;63.90
21781;BME280;52576;53.614;9.894;2023-03-04T10:07:04;101685.56;;;5.03;63.83
21781;BME280;52576;53.614;9.894;2023-03-04T10:09:13;101685.50;;;5.05;63.42
21781;BME280;52576;53.614;9.894;2023-03-04T10:11:22;101680.25;;;5.06;63.34
21781;BME280;52576;53.614;9.894;2023-03-04T10:13:30;101683.69;;;5.08;63.13
21781;BME280;52576;53.614;9.894;2023-03-04T10:15:39;101692.28;;;5.10;62.81
21781;BME280;52576;53.614;9.894;2023-03-04T10:17:47;101690.44;;;5.14;62.22
21781;BME280;52576;53.614;9.894;2023-03-04T10:19:56;101670.50;;;5.15;62.10
21781;BME280;52576;53.614;9.894;2023-03-04T10:22:01;101679.09;;;5.17;62.01
21781;BME280;52576;53.614;9.894;2023-03-04T10:24:19;101682.44;;;5.20;61.47
21781;BME280;52576;53.614;9.894;2023-03-04T10:26:28;101672.00;;;5.22;61.44
21781;BME280;52576;53.614;9.894;2023-03-04T10:28:33;101664.16;;;5.23;61.33
21781;BME280;52576;53.614;9.894;2023-03-04T10:30:45;101677.09;;;5.25;61.20
21781;BME280;52576;53.614;9.894;2023-03-04T10:32:50;101686.53;;;5.29;61.09
21781;BME280;52576;53.614;9.894;2023-03-04T10:34:53;101691.63;;;5.32;60.96
21781;BME280;52576;53.614;9.894;2023-03-04T10:36:59;101693.25;;;5.36;60.49
21781;BME280;52576;53.614;9.894;2023-03-04T10:39:06;101689.75;;;5.37;59.70
21781;BME280;52576;53.614;9.894;2023-03-04T10:41:13;101701.84;;;5.38;59.65
21781;BME280;52576;53.614;9.894;2023-03-04T10:43:18;101687.00;;;5.41;59.39
21781;BME280;52576;53.614;9.894;2023-03-04T10:45:23;101692.03;;;5.46;59.23
21781;BME280;52576;53.614;9.894;2023-03-04T10:47:28;101684.97;;;5.51;58.61
21781;BME280;52576;53.614;9.894;2023-03-04T10:49:32;101701.28;;;5.56;58.14
21781;BME280;52576;53.614;9.894;2023-03-04T10:51:41;101700.28;;;5.60;57.69
21781;BME280;52576;53.614;9.894;2023-03-04T10:53:46;101696.78;;;5.61;56.78
21781;BME280;52576;53.614;9.894;2023-03-04T10:55:50;101708.94;;;5.61;56.75
21781;BME280;52576;53.614;9.894;2023-03-04T10:58:00;101700.19;;;5.63;56.67
21781;BME280;52576;53.614;9.894;2023-03-04T11:00:29;101682.78;;;5.65;56.07